sensor_id;sensor_type;location;lat;lon;timestamp;pressure;altitude;pressure_sealevel;temperature;humidity
61205;BME280;47068;55.780;37.520;2023-07-31T00:01:32;99089.94;;;16.97;72.49
61205;BME280;47068;55.780;37.520;2023-07-31T00:03:58;99096.94;;;16.98;72.46
61205;BME280;47068;55.780;37.520;2023-07-31T00:06:23;99094.06;;;17.00;72.10
61205;BME280;47068;55.780;37.520;2023-07-31T00:08:49;99077.53;;;16.96;72.32
61205;BME280;47068;55.780;37.520;2023-07-31T00:11:14;99093.59;;;17.03;71.17
61205;BME280;47068;55.780;37.520;2023-07-31T00:13:40;99077.75;;;16.94;71.29
61205;BME280;47068;55.780;37.520;2023-07-31T00:16:05;99100.63;;;17.04;71.20
61205;BME280;47068;55.780;37.520;2023-07-31T00:18:31;99094.06;;;17.00;71.51
61205;BME280;47068;55.780;37.520;2023-07-31T00:20:56;99038.28;;;16.70;71.33
61205;BME280;47068;55.780;37.520;2023-07-31T00:23:22;99092.56;;;17.04;71.24
61205;BME280;47068;55.780;37.520;2023-07-31T00:25:47;99096.47;;;17.08;71.33
61205;BME280;47068;55.780;37.520;2023-07-31T00:28:12;99075.88;;;16.95;71.53
61205;BME280;47068;55.780;37.520;2023-07-31T00:30:38;99093.59;;;17.03;71.22
61205;BME280;47068;55.780;37.520;2023-07-31T00:33:03;99100.47;;;16.99;71.83
61205;BME280;47068;55.780;37.520;2023-07-31T00:35:29;99072.72;;;16.80;71.73
61205;BME280;47068;55.780;37.520;2023-07-31T00:37:56;99067.78;;;16.77;71.27
61205;BME280;47068;55.780;37.520;2023-07-31T00:40:21;99090.38;;;16.94;71.23
61205;BME280;47068;55.780;37.520;2023-07-31T00:42:47;99091.63;;;16.91;71.10
61205;BME280;47068;55.780;37.520;2023-07-31T00:45:12;99097.00;;;16.91;71.62
61205;BME280;47068;55.780;37.520;2023-07-31T00:47:37;99087.50;;;16.89;71.21
61205;BME280;47068;55.780;37.520;2023-07-31T00:50:03;99085.88;;;16.88;71.50
61205;BME280;47068;55.780;37.520;2023-07-31T00:52:29;99088.34;;;16.89;71.66
61205;BME280;47068;55.780;37.520;2023-07-31T00:54:54;99089.16;;;16.90;71.55
61205;BME280;47068;55.780;37.520;2023-07-31T00:57:20;99087.97;;;16.86;72.02
61205;BME280;47068;55.780;37.520;2023-07-31T00:59:45;99091.75;;;16.78;72.14
61205;BME280;47068;55.780;37.520;2023-07-31T01:02:11;99088.50;;;16.70;72.58
61205;BME280;47068;55.780;37.520;2023-07-31T01:04:37;99093.25;;;16.68;72.45
61205;BME280;47068;55.780;37.520;2023-07-31T01:08:00;99088.13;;;16.66;72.84
61205;BME280;47068;55.780;37.520;2023-07-31T01:10:45;99098.19;;;16.71;73.04
61205;BME280;47068;55.780;37.520;2023-07-31T01:13:11;99097.53;;;16.75;72.85
61205;BME280;47068;55.780;37.520;2023-07-31T01:15:37;99092.16;;;16.75;72.55
61205;BME280;47068;55.780;37.520;2023-07-31T01:18:03;99079.81;;;16.68;72.72
61205;BME280;47068;55.780;37.520;2023-07-31T01:20:30;99095.63;;;16.82;72.91
61205;BME280;47068;55.780;37.520;2023-07-31T01:26:01;99092.13;;;16.82;72.57
61205;BME280;47068;55.780;37.520;2023-07-31T01:31:08;99092.81;;;16.71;72.75
61205;BME280;47068;55.780;37.520;2023-07-31T01:33:36;99090.56;;;16.68;72.70
61205;BME280;47068;55.780;37.520;2023-07-31T01:36:02;99096.59;;;16.63;72.92
61205;BME280;47068;55.780;37.520;2023-07-31T01:38:28;99092.69;;;16.59;73.01
61205;BME280;47068;55.780;37.520;2023-07-31T01:40:54;99094.34;;;16.53;73.24
61205;BME280;47068;55.780;37.520;2023-07-31T01:43:20;99095.00;;;16.49;73.15
61205;BME280;47068;55.780;37.520;2023-07-31T01:45:45;99100.16;;;16.50;73.40
61205;BME280;47068;55.780;37.520;2023-07-31T01:48:11;99097.28;;;16.52;73.48
61205;BME280;47068;55.780;37.520;2023-07-31T01:50:36;99094.34;;;16.53;73.71
61205;BME280;47068;55.780;37.520;2023-07-31T01:53:01;99091.44;;;16.55;73.75
61205;BME280;47068;55.780;37.520;2023-07-31T01:55:27;99093.09;;;16.56;73.35
61205;BME280;47068;55.780;37.520;2023-07-31T01:57:53;99092.28;;;16.55;73.37
61205;BME280;47068;55.780;37.520;2023-07-31T02:00:18;99095.84;;;16.49;73.83
61205;BME280;47068;55.780;37.520;2023-07-31T02:02:44;99091.13;;;16.45;73.91
61205;BME280;47068;55.780;37.520;2023-07-31T02:05:10;99089.03;;;16.47;74.37
61205;BME280;47068;55.780;37.520;2023-07-31T02:07:35;99098.94;;;16.46;74.03
61205;BME280;47068;55.780;37.520;2023-07-31T02:10:00;99084.97;;;16.38;74.12
61205;BME280;47068;55.780;37.520;2023-07-31T02:12:26;99091.78;;;16.34;74.80
61205;BME280;47068;55.780;37.520;2023-07-31T02:14:51;99100.25;;;16.37;74.53
61205;BME280;47068;55.780;37.520;2023-07-31T02:17:17;99093.44;;;16.35;74.59
61205;BME280;47068;55.780;37.520;2023-07-31T02:19:42;99102.69;;;16.39;74.94
61205;BME280;47068;55.780;37.520;2023-07-31T02:22:08;99094.88;;;16.37;74.42
61205;BME280;47068;55.780;37.520;2023-07-31T02:24:33;99107.66;;;16.42;74.76
61205;BME280;47068;55.780;37.520;2023-07-31T02:26:59;99100.41;;;16.42;75.14
61205;BME280;47068;55.780;37.520;2023-07-31T02:29:24;99100.84;;;16.39;75.56
61205;BME280;47068;55.780;37.520;2023-07-31T02:31:50;99086.25;;;16.29;75.61
61205;BME280;47068;55.780;37.520;2023-07-31T02:34:15;99102.13;;;16.37;75.93
61205;BME280;47068;55.780;37.520;2023-07-31T02:36:41;99095.75;;;16.31;76.18
61205;BME280;47068;55.780;37.520;2023-07-31T02:39:06;99094.94;;;16.31;76.31
61205;BME280;47068;55.780;37.520;2023-07-31T02:41:31;99094.94;;;16.31;76.14
61205;BME280;47068;55.780;37.520;2023-07-31T02:43:57;99094.09;;;16.30;76.25
61205;BME280;47068;55.780;37.520;2023-07-31T02:46:22;99099.84;;;16.34;76.46
61205;BME280;47068;55.780;37.520;2023-07-31T02:48:50;99097.94;;;16.41;76.28
61205;BME280;47068;55.780;37.520;2023-07-31T02:51:16;99101.25;;;16.43;75.92
61205;BME280;47068;55.780;37.520;2023-07-31T02:53:41;99092.97;;;16.44;75.99
61205;BME280;47068;55.780;37.520;2023-07-31T02:56:07;99104.31;;;16.46;75.87
61205;BME280;47068;55.780;37.520;2023-07-31T02:58:32;99096.03;;;16.48;75.58
61205;BME280;47068;55.780;37.520;2023-07-31T03:00:58;99085.31;;;16.48;75.04
61205;BME280;47068;55.780;37.520;2023-07-31T03:03:24;99105.91;;;16.61;75.04
61205;BME280;47068;55.780;37.520;2023-07-31T03:05:49;99095.56;;;16.64;74.66
61205;BME280;47068;55.780;37.520;2023-07-31T03:08:15;99101.50;;;16.73;74.20
61205;BME280;47068;55.780;37.520;2023-07-31T03:10:40;99101.00;;;16.82;73.86
61205;BME280;47068;55.780;37.520;2023-07-31T03:13:06;99083.28;;;16.75;73.61
61205;BME280;47068;55.780;37.520;2023-07-31T03:15:32;99107.53;;;16.93;73.19
61205;BME280;47068;55.780;37.520;2023-07-31T03:17:57;99100.88;;;16.96;73.62
61205;BME280;47068;55.780;37.520;2023-07-31T03:20:23;99096.13;;;16.98;72.99
61205;BME280;47068;55.780;37.520;2023-07-31T03:22:48;99096.47;;;17.08;72.85
61205;BME280;47068;55.780;37.520;2023-07-31T03:25:14;99103.66;;;17.14;72.64
61205;BME280;47068;55.780;37.520;2023-07-31T03:27:39;99075.19;;;17.06;72.86
61205;BME280;47068;55.780;37.520;2023-07-31T03:30:05;99102.91;;;17.25;72.72
61205;BME280;47068;55.780;37.520;2023-07-31T03:32:31;99101.19;;;17.30;72.31
61205;BME280;47068;55.780;37.520;2023-07-31T03:34:57;99099.72;;;17.35;71.69
61205;BME280;47068;55.780;37.520;2023-07-31T03:37:22;99098.00;;;17.40;71.68
61205;BME280;47068;55.780;37.520;2023-07-31T03:39:48;99093.25;;;17.42;71.75
61205;BME280;47068;55.780;37.520;2023-07-31T03:42:13;99096.69;;;17.49;71.50
61205;BME280;47068;55.780;37.520;2023-07-31T03:44:39;99105.47;;;17.56;71.31
61205;BME280;47068;55.780;37.520;2023-07-31T03:47:05;99091.59;;;17.59;72.06
61205;BME280;47068;55.780;37.520;2023-07-31T03:49:31;99095.88;;;17.67;71.49
61205;BME280;47068;55.780;37.520;2023-07-31T03:51:56;99096.63;;;17.74;71.37
61205;BME280;47068;55.780;37.520;2023-07-31T03:54:21;99078.63;;;17.75;70.65
61205;BME280;47068;55.780;37.520;2023-07-31T03:56:47;99098.50;;;17.92;70.29
61205;BME280;47068;55.780;37.520;2023-07-31T03:59:12;99096.53;;;17.99;69.93
61205;BME280;47068;55.780;37.520;2023-07-31T04:01:38;99085.94;;;18.04;68.88
61205;BME280;47068;55.780;37.520;2023-07-31T04:04:03;99080.81;;;18.14;68.62
61205;BME280;47068;55.780;37.520;2023-07-31T04:06:29;99099.03;;;18.30;68.03
61205;BME280;47068;55.780;37.520;2023-07-31T04:08:54;99094.16;;;18.39;67.52
61205;BME280;47068;55.780;37.520;2023-07-31T04:11:20;99096.16;;;18.43;66.18
61205;BME280;47068;55.780;37.520;2023-07-31T04:13:45;99096.00;;;18.57;65.97
61205;BME280;47068;55.780;37.520;2023-07-31T04:16:10;99103.75;;;18.65;65.37
61205;BME280;47068;55.780;37.520;2023-07-31T04:18:36;99087.94;;;18.68;64.99
61205;BME280;47068;55.780;37.520;2023-07-31T04:21:01;99094.75;;;18.82;64.50
61205;BME280;47068;55.780;37.520;2023-07-31T04:23:27;99109.91;;;18.95;64.01
61205;BME280;47068;55.780;37.520;2023-07-31T04:25:53;99099.16;;;19.07;63.50
61205;BME280;47068;55.780;37.520;2023-07-31T04:28:18;99101.25;;;19.16;62.93
61205;BME280;47068;55.780;37.520;2023-07-31T04:30:44;99116.75;;;19.33;63.10
61205;BME280;47068;55.780;37.520;2023-07-31T04:33:09;99084.81;;;19.29;63.20
61205;BME280;47068;55.780;37.520;2023-07-31T04:35:34;99107.38;;;19.58;63.06
61205;BME280;47068;55.780;37.520;2023-07-31T04:38:00;99109.94;;;20.17;61.91
61205;BME280;47068;55.780;37.520;2023-07-31T04:40:26;99108.78;;;20.53;61.46
61205;BME280;47068;55.780;37.520;2023-07-31T04:42:51;99053.19;;;20.57;59.73
61205;BME280;47068;55.780;37.520;2023-07-31T04:45:16;99112.03;;;21.00;58.06
61205;BME280;47068;55.780;37.520;2023-07-31T04:47:42;99117.75;;;21.03;57.68
61205;BME280;47068;55.780;37.520;2023-07-31T04:50:08;99105.72;;;21.11;57.03
61205;BME280;47068;55.780;37.520;2023-07-31T04:52:33;99114.41;;;21.13;56.93
61205;BME280;47068;55.780;37.520;2023-07-31T04:54:58;99114.84;;;21.21;56.47
61205;BME280;47068;55.780;37.520;2023-07-31T04:57:24;99113.44;;;21.74;55.91
61205;BME280;47068;55.780;37.520;2023-07-31T04:59:50;99117.31;;;22.44;54.47
61205;BME280;47068;55.780;37.520;2023-07-31T05:02:15;99122.22;;;23.00;53.37
61205;BME280;47068;55.780;37.520;2023-07-31T05:04:41;99110.78;;;23.72;52.13
61205;BME280;47068;55.780;37.520;2023-07-31T05:07:06;99095.31;;;24.35;50.15
61205;BME280;47068;55.780;37.520;2023-07-31T05:09:31;99105.78;;;25.14;48.01
61205;BME280;47068;55.780;37.520;2023-07-31T05:11:57;99108.09;;;25.97;46.13
61205;BME280;47068;55.780;37.520;2023-07-31T05:14:22;99097.16;;;26.56;44.43
61205;BME280;47068;55.780;37.520;2023-07-31T05:16:48;99111.84;;;27.09;42.86
61205;BME280;47068;55.780;37.520;2023-07-31T05:19:13;99103.06;;;26.73;42.94
61205;BME280;47068;55.780;37.520;2023-07-31T05:21:39;99106.28;;;26.41;44.10
61205;BME280;47068;55.780;37.520;2023-07-31T05:24:05;99101.41;;;26.23;44.32
61205;BME280;47068;55.780;37.520;2023-07-31T05:26:30;99102.00;;;26.15;44.94
61205;BME280;47068;55.780;37.520;2023-07-31T05:28:56;99104.69;;;26.30;44.70
61205;BME280;47068;55.780;37.520;2023-07-31T05:31:23;99103.75;;;26.50;43.24
61205;BME280;47068;55.780;37.520;2023-07-31T05:33:49;99111.16;;;26.88;42.81
61205;BME280;47068;55.780;37.520;2023-07-31T05:36:15;99087.44;;;27.18;40.61
61205;BME280;47068;55.780;37.520;2023-07-31T05:38:41;99103.38;;;27.11;41.26
61205;BME280;47068;55.780;37.520;2023-07-31T05:41:07;99107.38;;;27.18;40.07
61205;BME280;47068;55.780;37.520;2023-07-31T05:43:32;99098.59;;;27.55;38.65
61205;BME280;47068;55.780;37.520;2023-07-31T05:45:58;99097.44;;;27.85;37.96
61205;BME280;47068;55.780;37.520;2023-07-31T05:48:23;99102.66;;;28.05;38.15
61205;BME280;47068;55.780;37.520;2023-07-31T05:50:49;99105.81;;;28.17;38.08
61205;BME280;47068;55.780;37.520;2023-07-31T05:53:14;99102.63;;;28.29;36.92
61205;BME280;47068;55.780;37.520;2023-07-31T05:55:40;99101.50;;;28.54;36.89
61205;BME280;47068;55.780;37.520;2023-07-31T05:58:05;99091.81;;;28.62;36.48
61205;BME280;47068;55.780;37.520;2023-07-31T06:00:30;99098.13;;;28.57;35.67
61205;BME280;47068;55.780;37.520;2023-07-31T06:02:56;99103.34;;;28.40;36.51
61205;BME280;47068;55.780;37.520;2023-07-31T06:05:22;99105.00;;;28.36;37.16
61205;BME280;47068;55.780;37.520;2023-07-31T06:07:47;99096.75;;;28.59;37.49
61205;BME280;47068;55.780;37.520;2023-07-31T06:10:12;99091.91;;;29.08;35.57
61205;BME280;47068;55.780;37.520;2023-07-31T06:12:38;99100.78;;;29.64;36.58
61205;BME280;47068;55.780;37.520;2023-07-31T06:15:04;99091.69;;;30.46;33.38
61205;BME280;47068;55.780;37.520;2023-07-31T06:17:31;99087.84;;;31.58;31.51
61205;BME280;47068;55.780;37.520;2023-07-31T06:19:56;99092.84;;;32.61;29.27
61205;BME280;47068;55.780;37.520;2023-07-31T06:22:22;99093.63;;;33.13;28.99
61205;BME280;47068;55.780;37.520;2023-07-31T06:24:48;99094.78;;;34.23;27.36
61205;BME280;47068;55.780;37.520;2023-07-31T06:27:13;99089.56;;;36.19;24.42
61205;BME280;47068;55.780;37.520;2023-07-31T06:29:39;99089.09;;;38.00;22.87
61205;BME280;47068;55.780;37.520;2023-07-31T06:32:04;99092.53;;;38.98;21.75
61205;BME280;47068;55.780;37.520;2023-07-31T06:34:30;99094.38;;;39.32;22.00
61205;BME280;47068;55.780;37.520;2023-07-31T06:36:58;99098.44;;;39.58;21.17
61205;BME280;47068;55.780;37.520;2023-07-31T06:39:24;99098.22;;;39.89;20.35
61205;BME280;47068;55.780;37.520;2023-07-31T06:41:49;99094.78;;;40.52;19.58
61205;BME280;47068;55.780;37.520;2023-07-31T06:44:15;99083.50;;;41.82;18.18
61205;BME280;47068;55.780;37.520;2023-07-31T06:46:42;99091.53;;;43.46;17.09
61205;BME280;47068;55.780;37.520;2023-07-31T06:49:07;99094.59;;;44.83;15.92
61205;BME280;47068;55.780;37.520;2023-07-31T06:51:33;99091.16;;;45.86;15.17
61205;BME280;47068;55.780;37.520;2023-07-31T06:53:58;99054.78;;;46.81;13.79
61205;BME280;47068;55.780;37.520;2023-07-31T06:56:24;99091.84;;;48.10;13.18
61205;BME280;47068;55.780;37.520;2023-07-31T06:58:51;99104.91;;;49.22;12.66
61205;BME280;47068;55.780;37.520;2023-07-31T07:01:16;99085.09;;;49.75;11.42
61205;BME280;47068;55.780;37.520;2023-07-31T07:03:42;99085.41;;;50.96;11.74
61205;BME280;47068;55.780;37.520;2023-07-31T07:06:07;99088.63;;;51.36;10.54
61205;BME280;47068;55.780;37.520;2023-07-31T07:08:33;99081.72;;;51.24;10.64
61205;BME280;47068;55.780;37.520;2023-07-31T07:10:58;99074.44;;;51.48;10.73
61205;BME280;47068;55.780;37.520;2023-07-31T07:13:24;99084.22;;;51.94;9.73
61205;BME280;47068;55.780;37.520;2023-07-31T07:15:49;99066.38;;;52.41;9.26
61205;BME280;47068;55.780;37.520;2023-07-31T07:18:15;99074.41;;;52.08;9.28
61205;BME280;47068;55.780;37.520;2023-07-31T07:20:46;99071.84;;;52.01;9.63
61205;BME280;47068;55.780;37.520;2023-07-31T07:23:12;99072.44;;;51.96;9.36
61205;BME280;47068;55.780;37.520;2023-07-31T07:25:39;99070.94;;;52.04;8.59
61205;BME280;47068;55.780;37.520;2023-07-31T07:28:04;99074.06;;;51.84;8.93
61205;BME280;47068;55.780;37.520;2023-07-31T07:30:30;99067.06;;;51.64;9.25
61205;BME280;47068;55.780;37.520;2023-07-31T07:32:55;99073.59;;;52.55;9.41
61205;BME280;47068;55.780;37.520;2023-07-31T07:35:21;99073.03;;;53.71;8.45
61205;BME280;47068;55.780;37.520;2023-07-31T07:37:48;99072.91;;;54.29;7.92
61205;BME280;47068;55.780;37.520;2023-07-31T07:40:15;99070.69;;;54.70;7.86
61205;BME280;47068;55.780;37.520;2023-07-31T07:42:41;99066.25;;;54.69;8.01
61205;BME280;47068;55.780;37.520;2023-07-31T07:45:07;99063.69;;;54.80;7.27
61205;BME280;47068;55.780;37.520;2023-07-31T07:47:32;99063.13;;;54.12;7.85
61205;BME280;47068;55.780;37.520;2023-07-31T07:49:58;99070.63;;;53.60;8.08
61205;BME280;47068;55.780;37.520;2023-07-31T07:52:23;99070.09;;;53.03;8.08
61205;BME280;47068;55.780;37.520;2023-07-31T07:54:48;99060.13;;;52.77;9.02
61205;BME280;47068;55.780;37.520;2023-07-31T07:57:15;99058.50;;;52.45;8.43
61205;BME280;47068;55.780;37.520;2023-07-31T07:59:41;99067.69;;;52.15;8.60
61205;BME280;47068;55.780;37.520;2023-07-31T08:02:07;99060.50;;;52.01;8.23
61205;BME280;47068;55.780;37.520;2023-07-31T08:04:32;99058.97;;;51.75;8.13
61205;BME280;47068;55.780;37.520;2023-07-31T08:06:58;99061.28;;;51.54;8.56
61205;BME280;47068;55.780;37.520;2023-07-31T08:09:23;99060.63;;;50.71;8.86
61205;BME280;47068;55.780;37.520;2023-07-31T08:11:49;99047.16;;;50.04;9.31
61205;BME280;47068;55.780;37.520;2023-07-31T08:14:14;99049.66;;;49.70;9.55
61205;BME280;47068;55.780;37.520;2023-07-31T08:16:40;99040.38;;;48.85;9.94
61205;BME280;47068;55.780;37.520;2023-07-31T08:19:05;99047.03;;;47.92;10.39
61205;BME280;47068;55.780;37.520;2023-07-31T08:21:31;99039.34;;;45.87;11.91
61205;BME280;47068;55.780;37.520;2023-07-31T08:23:57;99048.34;;;43.58;13.31
61205;BME280;47068;55.780;37.520;2023-07-31T08:26:22;99049.91;;;41.75;15.17
61205;BME280;47068;55.780;37.520;2023-07-31T08:28:48;99038.63;;;39.48;16.42
61205;BME280;47068;55.780;37.520;2023-07-31T08:31:13;99037.91;;;37.81;18.45
61205;BME280;47068;55.780;37.520;2023-07-31T08:33:39;99048.31;;;36.42;19.81
61205;BME280;47068;55.780;37.520;2023-07-31T08:36:05;99034.50;;;35.57;20.25
61205;BME280;47068;55.780;37.520;2023-07-31T08:38:31;99051.19;;;34.91;21.26
61205;BME280;47068;55.780;37.520;2023-07-31T08:40:57;99055.66;;;34.12;21.28
61205;BME280;47068;55.780;37.520;2023-07-31T08:43:25;99049.03;;;33.29;22.82
61205;BME280;47068;55.780;37.520;2023-07-31T08:45:52;99031.13;;;32.54;23.67
61205;BME280;47068;55.780;37.520;2023-07-31T08:48:19;99053.47;;;32.26;25.09
61205;BME280;47068;55.780;37.520;2023-07-31T08:50:45;99046.56;;;31.89;25.40
61205;BME280;47068;55.780;37.520;2023-07-31T08:53:10;99051.72;;;31.43;24.86
61205;BME280;47068;55.780;37.520;2023-07-31T08:55:38;99058.19;;;31.16;26.63
61205;BME280;47068;55.780;37.520;2023-07-31T08:58:04;99061.13;;;30.97;26.63
61205;BME280;47068;55.780;37.520;2023-07-31T09:00:31;99065.94;;;30.69;27.13
61205;BME280;47068;55.780;37.520;2023-07-31T09:03:08;99064.56;;;30.44;27.82
61205;BME280;47068;55.780;37.520;2023-07-31T09:05:35;99066.63;;;30.25;28.19
61205;BME280;47068;55.780;37.520;2023-07-31T09:08:03;99038.44;;;29.97;27.17
61205;BME280;47068;55.780;37.520;2023-07-31T09:10:29;99054.19;;;29.78;28.56
61205;BME280;47068;55.780;37.520;2023-07-31T09:12:55;99041.19;;;29.56;28.66
61205;BME280;47068;55.780;37.520;2023-07-31T09:15:21;99071.72;;;29.50;29.38
61205;BME280;47068;55.780;37.520;2023-07-31T09:17:58;99058.53;;;29.38;28.45
61205;BME280;47068;55.780;37.520;2023-07-31T09:20:25;99059.06;;;29.21;28.50
61205;BME280;47068;55.780;37.520;2023-07-31T09:22:51;99025.00;;;28.63;29.12
61205;BME280;47068;55.780;37.520;2023-07-31T09:25:24;99052.72;;;28.56;29.75
61205;BME280;47068;55.780;37.520;2023-07-31T09:27:52;99037.13;;;28.56;29.54
61205;BME280;47068;55.780;37.520;2023-07-31T09:30:18;99053.84;;;28.74;29.56
61205;BME280;47068;55.780;37.520;2023-07-31T09:32:45;99060.59;;;28.81;31.23
61205;BME280;47068;55.780;37.520;2023-07-31T09:37:51;99063.22;;;28.86;31.25
61205;BME280;47068;55.780;37.520;2023-07-31T09:40:30;99054.81;;;28.83;31.71
61205;BME280;47068;55.780;37.520;2023-07-31T09:42:57;99061.69;;;28.80;30.73
61205;BME280;47068;55.780;37.520;2023-07-31T09:45:24;99055.50;;;28.75;29.87
61205;BME280;47068;55.780;37.520;2023-07-31T09:47:49;99060.88;;;28.80;30.12
61205;BME280;47068;55.780;37.520;2023-07-31T09:50:15;99055.31;;;28.66;30.32
61205;BME280;47068;55.780;37.520;2023-07-31T09:52:44;99060.38;;;28.40;30.68
61205;BME280;47068;55.780;37.520;2023-07-31T09:55:10;99068.66;;;28.11;30.97
61205;BME280;47068;55.780;37.520;2023-07-31T09:57:40;99070.91;;;27.86;31.32
61205;BME280;47068;55.780;37.520;2023-07-31T10:00:08;99065.81;;;27.79;31.46
61205;BME280;47068;55.780;37.520;2023-07-31T10:02:36;99057.06;;;27.77;31.65
61205;BME280;47068;55.780;37.520;2023-07-31T10:05:04;99061.72;;;27.76;30.96
61205;BME280;47068;55.780;37.520;2023-07-31T10:07:30;99058.75;;;27.73;31.13
61205;BME280;47068;55.780;37.520;2023-07-31T10:10:00;99061.25;;;27.69;30.30
61205;BME280;47068;55.780;37.520;2023-07-31T10:12:27;99064.84;;;27.89;30.86
61205;BME280;47068;55.780;37.520;2023-07-31T10:14:55;99064.66;;;28.04;31.36
61205;BME280;47068;55.780;37.520;2023-07-31T10:17:22;99075.72;;;28.17;32.01
61205;BME280;47068;55.780;37.520;2023-07-31T10:19:49;99070.88;;;28.09;32.18
61205;BME280;47068;55.780;37.520;2023-07-31T10:22:15;99069.78;;;28.10;32.52
61205;BME280;47068;55.780;37.520;2023-07-31T10:24:45;99064.72;;;28.23;32.17
61205;BME280;47068;55.780;37.520;2023-07-31T10:27:11;99071.00;;;28.23;31.60
61205;BME280;47068;55.780;37.520;2023-07-31T10:29:39;99078.69;;;28.21;32.39
61205;BME280;47068;55.780;37.520;2023-07-31T10:32:06;99069.16;;;28.18;31.90
61205;BME280;47068;55.780;37.520;2023-07-31T10:34:37;99069.38;;;28.22;32.15
61205;BME280;47068;55.780;37.520;2023-07-31T10:37:29;99055.56;;;28.32;31.67
61205;BME280;47068;55.780;37.520;2023-07-31T10:42:28;99066.63;;;28.22;31.80
61205;BME280;47068;55.780;37.520;2023-07-31T10:44:59;99066.59;;;28.03;31.82
61205;BME280;47068;55.780;37.520;2023-07-31T10:47:25;99063.81;;;27.85;31.43
61205;BME280;47068;55.780;37.520;2023-07-31T10:49:51;99070.63;;;27.63;32.51
61205;BME280;47068;55.780;37.520;2023-07-31T10:52:21;99073.06;;;27.36;33.07
61205;BME280;47068;55.780;37.520;2023-07-31T10:55:16;99078.16;;;27.19;32.89
61205;BME280;47068;55.780;37.520;2023-07-31T10:57:46;99063.50;;;27.10;33.40
61205;BME280;47068;55.780;37.520;2023-07-31T11:00:25;99077.44;;;27.08;33.41
61205;BME280;47068;55.780;37.520;2023-07-31T11:03:03;99074.72;;;27.08;33.72
61205;BME280;47068;55.780;37.520;2023-07-31T11:08:21;99074.56;;;27.23;33.82
61205;BME280;47068;55.780;37.520;2023-07-31T11:13:27;99072.44;;;27.44;33.42
61205;BME280;47068;55.780;37.520;2023-07-31T11:15:54;99068.53;;;27.55;32.97
61205;BME280;47068;55.780;37.520;2023-07-31T11:18:19;99067.91;;;27.63;32.92
61205;BME280;47068;55.780;37.520;2023-07-31T11:20:45;99065.28;;;27.77;33.30
61205;BME280;47068;55.780;37.520;2023-07-31T11:23:11;99064.84;;;27.89;33.15
61205;BME280;47068;55.780;37.520;2023-07-31T11:25:38;99064.13;;;28.02;33.20
61205;BME280;47068;55.780;37.520;2023-07-31T11:28:09;99063.50;;;28.10;32.71
61205;BME280;47068;55.780;37.520;2023-07-31T11:30:35;99060.28;;;28.03;32.22
61205;BME280;47068;55.780;37.520;2023-07-31T11:33:02;99061.53;;;27.92;32.51
61205;BME280;47068;55.780;37.520;2023-07-31T11:35:35;99062.94;;;27.89;32.73
61205;BME280;47068;55.780;37.520;2023-07-31T11:38:01;99050.16;;;27.85;33.02
61205;BME280;47068;55.780;37.520;2023-07-31T11:40:28;99062.75;;;27.80;33.12
61205;BME280;47068;55.780;37.520;2023-07-31T11:42:58;99055.22;;;27.72;33.02
61205;BME280;47068;55.780;37.520;2023-07-31T11:45:27;99057.50;;;27.65;33.05
61205;BME280;47068;55.780;37.520;2023-07-31T11:47:56;99064.53;;;27.71;33.48
61205;BME280;47068;55.780;37.520;2023-07-31T11:50:25;99063.53;;;27.62;33.12
61205;BME280;47068;55.780;37.520;2023-07-31T11:52:56;99063.88;;;27.56;33.27
61205;BME280;47068;55.780;37.520;2023-07-31T11:55:23;99060.94;;;27.52;33.40
61205;BME280;47068;55.780;37.520;2023-07-31T11:57:49;99064.19;;;27.49;33.42
61205;BME280;47068;55.780;37.520;2023-07-31T12:00:15;99053.44;;;27.34;33.91
61205;BME280;47068;55.780;37.520;2023-07-31T12:02:42;99064.16;;;27.25;34.90
61205;BME280;47068;55.780;37.520;2023-07-31T12:05:14;99071.16;;;27.08;34.38
61205;BME280;47068;55.780;37.520;2023-07-31T12:10:09;99073.09;;;26.68;37.16
61205;BME280;47068;55.780;37.520;2023-07-31T12:12:35;99080.56;;;26.52;37.51
61205;BME280;47068;55.780;37.520;2023-07-31T12:15:00;99090.19;;;26.35;36.65
61205;BME280;47068;55.780;37.520;2023-07-31T12:17:26;99085.63;;;26.25;36.58
61205;BME280;47068;55.780;37.520;2023-07-31T12:19:52;99077.78;;;26.08;36.71
61205;BME280;47068;55.780;37.520;2023-07-31T12:22:17;99096.59;;;26.10;37.17
61205;BME280;47068;55.780;37.520;2023-07-31T12:24:43;99102.06;;;26.05;37.95
61205;BME280;47068;55.780;37.520;2023-07-31T12:27:13;99095.81;;;25.94;37.80
61205;BME280;47068;55.780;37.520;2023-07-31T12:29:39;99090.44;;;25.84;38.38
61205;BME280;47068;55.780;37.520;2023-07-31T12:32:25;99093.97;;;25.79;38.10
61205;BME280;47068;55.780;37.520;2023-07-31T12:34:53;99091.53;;;25.73;38.14
61205;BME280;47068;55.780;37.520;2023-07-31T12:37:20;99092.09;;;25.70;38.56
61205;BME280;47068;55.780;37.520;2023-07-31T12:39:47;99083.66;;;25.56;38.62
61205;BME280;47068;55.780;37.520;2023-07-31T12:42:12;99097.06;;;25.58;38.87
61205;BME280;47068;55.780;37.520;2023-07-31T12:44:37;99090.22;;;25.50;38.83
61205;BME280;47068;55.780;37.520;2023-07-31T12:47:03;99087.78;;;25.48;39.10
61205;BME280;47068;55.780;37.520;2023-07-31T12:49:29;99093.75;;;25.56;39.26
61205;BME280;47068;55.780;37.520;2023-07-31T12:51:54;99096.47;;;25.61;39.36
61205;BME280;47068;55.780;37.520;2023-07-31T12:54:20;99088.00;;;25.67;39.75
61205;BME280;47068;55.780;37.520;2023-07-31T12:56:45;99093.75;;;25.71;40.07
61205;BME280;47068;55.780;37.520;2023-07-31T12:59:11;99093.72;;;25.76;39.81
61205;BME280;47068;55.780;37.520;2023-07-31T13:01:36;99089.34;;;25.80;39.61
61205;BME280;47068;55.780;37.520;2023-07-31T13:04:02;99088.78;;;25.83;39.51
61205;BME280;47068;55.780;37.520;2023-07-31T13:06:27;99082.78;;;25.81;40.42